createdAt,value
2022-09-01T00:00:36.280Z,15.86
2022-09-01T00:01:36.168Z,15.84
2022-09-01T00:02:36.221Z,15.81
2022-09-01T00:03:36.041Z,15.80
2022-09-01T00:04:36.056Z,15.85
2022-09-01T00:05:35.923Z,15.85
2022-09-01T00:06:36.000Z,15.74
2022-09-01T00:07:35.862Z,15.73
2022-09-01T00:08:35.738Z,15.84
2022-09-01T00:09:35.742Z,15.81
2022-09-01T00:10:35.612Z,15.80
2022-09-01T00:11:35.548Z,15.81
2022-09-01T00:12:35.488Z,15.80
2022-09-01T00:13:35.424Z,15.77
2022-09-01T00:14:38.489Z,15.77
2022-09-01T00:15:35.331Z,15.78
2022-09-01T00:16:35.245Z,15.81
2022-09-01T00:17:35.186Z,15.62
2022-09-01T00:18:35.119Z,15.71
2022-09-01T00:19:35.053Z,15.67
2022-09-01T00:20:35.008Z,15.66
2022-09-01T00:21:34.932Z,15.67
2022-09-01T00:22:34.885Z,15.56
2022-09-01T00:23:34.814Z,15.60
2022-09-01T00:24:34.753Z,15.58
2022-09-01T00:25:34.699Z,15.55
2022-09-01T00:26:34.630Z,15.58
2022-09-01T00:27:34.580Z,15.59
2022-09-01T00:28:34.507Z,15.60
2022-09-01T00:29:34.445Z,15.58
2022-09-01T00:30:34.394Z,15.55
2022-09-01T00:31:34.366Z,15.67
2022-09-01T00:32:34.269Z,15.58
2022-09-01T00:33:34.191Z,15.53
2022-09-01T00:34:34.135Z,15.48
2022-09-01T00:35:34.398Z,15.48
2022-09-01T00:36:34.011Z,15.44
2022-09-01T00:37:33.949Z,15.48
2022-09-01T00:38:33.886Z,15.48
2022-09-01T00:39:33.820Z,15.43
2022-09-01T00:40:33.787Z,15.44
2022-09-01T00:41:33.719Z,15.34
2022-09-01T00:42:33.649Z,15.35
2022-09-01T00:43:33.576Z,15.38
2022-09-01T00:44:33.534Z,15.33
2022-09-01T00:45:33.448Z,15.34
2022-09-01T00:46:33.524Z,15.22
2022-09-01T00:47:33.326Z,15.22
2022-09-01T00:48:33.265Z,15.23
2022-09-01T00:49:35.135Z,15.25
2022-09-01T00:50:33.146Z,15.22
2022-09-01T00:51:33.084Z,15.18
2022-09-01T00:52:33.017Z,15.25
2022-09-01T00:53:32.953Z,15.23
2022-09-01T00:54:32.898Z,15.19
2022-09-01T00:55:32.841Z,15.20
2022-09-01T00:56:32.769Z,15.16
2022-09-01T00:57:32.712Z,15.20
2022-09-01T00:58:32.643Z,15.19
2022-09-01T00:59:32.582Z,15.19
2022-09-01T01:00:32.527Z,15.15
2022-09-01T01:01:32.507Z,15.22
2022-09-01T01:02:32.420Z,15.16
2022-09-01T01:03:32.333Z,15.07
2022-09-01T01:04:32.353Z,15.07
2022-09-01T01:05:32.208Z,15.09
2022-09-01T01:06:32.321Z,15.12
2022-09-01T01:07:32.121Z,15.07
2022-09-01T01:08:32.029Z,15.05
2022-09-01T01:09:31.967Z,15.11
2022-09-01T01:10:31.910Z,15.04
2022-09-01T01:11:31.839Z,15.01
2022-09-01T01:12:31.782Z,15.04
2022-09-01T01:13:31.714Z,14.97
2022-09-01T01:14:31.658Z,15.03
2022-09-01T01:15:31.589Z,15.04
2022-09-01T01:16:31.570Z,15.03
2022-09-01T01:17:31.480Z,15.04
2022-09-01T01:18:31.420Z,15.03
2022-09-01T01:19:33.835Z,14.95
2022-09-01T01:20:31.281Z,14.83
2022-09-01T01:21:31.233Z,14.93
2022-09-01T01:22:31.158Z,14.85
2022-09-01T01:23:31.102Z,14.85
2022-09-01T01:24:31.036Z,14.85
2022-09-01T01:25:30.977Z,14.90
2022-09-01T01:26:30.912Z,14.87
2022-09-01T01:27:30.895Z,14.93
2022-09-01T01:28:30.787Z,14.86
2022-09-01T01:29:30.725Z,14.86
2022-09-01T01:30:30.675Z,14.80
2022-09-01T01:31:30.612Z,14.80
2022-09-01T01:32:30.547Z,14.85
2022-09-01T01:33:30.476Z,14.75
2022-09-01T01:34:30.417Z,14.71
2022-09-01T01:35:30.355Z,14.79
2022-09-01T01:36:30.300Z,14.78
2022-09-01T01:37:30.227Z,14.79
2022-09-01T01:38:30.182Z,14.79
2022-09-01T01:39:30.101Z,14.74
2022-09-01T01:40:30.112Z,14.78
2022-09-01T01:41:29.981Z,14.82
2022-09-01T01:42:29.918Z,14.83
2022-09-01T01:43:29.862Z,14.82
2022-09-01T01:44:29.795Z,14.79
2022-09-01T01:45:29.741Z,14.71
2022-09-01T01:46:29.727Z,14.80
2022-09-01T01:47:29.606Z,14.75
2022-09-01T01:48:29.545Z,14.78
2022-09-01T01:49:29.483Z,14.86
2022-09-01T01:50:29.429Z,14.78
2022-09-01T01:51:29.365Z,14.72
2022-09-01T01:52:29.297Z,14.72
2022-09-01T01:53:29.235Z,14.79
2022-09-01T01:54:29.174Z,14.72
2022-09-01T01:55:29.185Z,14.72
2022-09-01T01:56:29.048Z,14.66
2022-09-01T01:57:28.993Z,14.56
2022-09-01T01:58:28.927Z,14.57
2022-09-01T01:59:28.862Z,14.59
2022-09-01T02:00:30.607Z,14.56
2022-09-01T02:01:28.929Z,14.61
2022-09-01T02:02:28.745Z,14.52
2022-09-01T02:03:28.619Z,14.45
2022-09-01T02:04:28.559Z,14.46
2022-09-01T02:05:28.488Z,14.38
2022-09-01T02:06:28.430Z,14.38
2022-09-01T02:07:28.370Z,14.35
2022-09-01T02:08:28.304Z,14.27
2022-09-01T02:09:28.239Z,14.35
2022-09-01T02:10:28.201Z,14.23
2022-09-01T02:11:28.123Z,14.27
2022-09-01T02:12:28.060Z,14.30
2022-09-01T02:13:27.995Z,14.27
2022-09-01T02:14:27.929Z,14.27
2022-09-01T02:15:27.864Z,14.29
2022-09-01T02:16:27.858Z,14.19
2022-09-01T02:17:27.746Z,14.21
2022-09-01T02:18:27.691Z,14.23
2022-09-01T02:19:27.617Z,14.24
2022-09-01T02:20:27.557Z,14.16
2022-09-01T02:21:27.497Z,14.08
2022-09-01T02:22:27.439Z,14.19
2022-09-01T02:23:27.374Z,14.08
2022-09-01T02:24:27.312Z,14.16
2022-09-01T02:25:27.243Z,14.04
2022-09-01T02:26:27.188Z,14.04
2022-09-01T02:27:27.122Z,14.05
2022-09-01T02:28:27.062Z,14.04
2022-09-01T02:29:27.006Z,14.08
2022-09-01T02:30:26.987Z,14.16
2022-09-01T02:31:26.893Z,14.20
2022-09-01T02:32:26.820Z,14.13
2022-09-01T02:33:26.753Z,14.06
2022-09-01T02:34:26.688Z,14.06
2022-09-01T02:35:26.626Z,14.13
2022-09-01T02:36:26.562Z,14.09
2022-09-01T02:37:26.496Z,14.16
2022-09-01T02:38:26.446Z,14.11
2022-09-01T02:39:26.386Z,14.12
2022-09-01T02:40:26.356Z,14.02
2022-09-01T02:41:26.248Z,14.06
2022-09-01T02:42:26.195Z,14.02
2022-09-01T02:43:26.132Z,14.02
2022-09-01T02:44:26.064Z,14.02
2022-09-01T02:45:26.003Z,13.98
2022-09-01T02:46:25.942Z,13.90
2022-09-01T02:47:25.883Z,13.98
2022-09-01T02:48:25.812Z,13.90
2022-09-01T02:49:25.785Z,13.83
2022-09-01T02:50:25.690Z,13.84
2022-09-01T02:51:25.935Z,13.90
2022-09-01T02:52:25.572Z,13.87
2022-09-01T02:53:25.501Z,13.86
2022-09-01T02:54:25.450Z,13.76
2022-09-01T02:55:25.374Z,13.75
2022-09-01T02:56:25.962Z,13.71
2022-09-01T02:57:25.249Z,13.72
2022-09-01T02:58:25.190Z,13.73
2022-09-01T02:59:25.128Z,13.65
2022-09-01T03:00:25.061Z,13.66
2022-09-01T03:01:25.313Z,13.57
2022-09-01T03:02:24.941Z,13.53
2022-09-01T03:03:24.875Z,13.50
2022-09-01T03:04:24.863Z,13.51
2022-09-01T03:05:24.753Z,13.48
2022-09-01T03:06:24.850Z,13.55
2022-09-01T03:07:24.625Z,13.51
2022-09-01T03:08:24.573Z,13.55
2022-09-01T03:09:24.502Z,13.51
2022-09-01T03:10:24.576Z,13.46
2022-09-01T03:11:24.419Z,13.50
2022-09-01T03:12:24.439Z,13.51
2022-09-01T03:13:24.255Z,13.55
2022-09-01T03:14:24.220Z,13.50
2022-09-01T03:15:25.003Z,13.48
2022-09-01T03:16:24.090Z,13.48
2022-09-01T03:17:24.041Z,13.55
2022-09-01T03:18:23.937Z,13.39
2022-09-01T03:19:23.897Z,13.51
2022-09-01T03:20:23.812Z,13.44
2022-09-01T03:21:23.749Z,13.43
2022-09-01T03:22:23.704Z,13.39
2022-09-01T03:23:23.621Z,13.39
2022-09-01T03:24:23.575Z,13.32
2022-09-01T03:25:23.497Z,13.28
2022-09-01T03:26:23.449Z,13.35
2022-09-01T03:27:23.371Z,13.28
2022-09-01T03:28:23.309Z,13.31
2022-09-01T03:29:23.273Z,13.17
2022-09-01T03:30:23.185Z,13.13
2022-09-01T03:31:23.168Z,13.13
2022-09-01T03:32:23.058Z,13.06
2022-09-01T03:33:22.995Z,13.04
2022-09-01T03:34:22.937Z,13.09
2022-09-01T03:35:22.875Z,13.09
2022-09-01T03:36:22.811Z,13.07
2022-09-01T03:37:22.746Z,12.96
2022-09-01T03:38:22.685Z,12.91
2022-09-01T03:39:22.625Z,12.96
2022-09-01T03:40:22.605Z,12.89
2022-09-01T03:41:22.497Z,12.92
2022-09-01T03:42:22.431Z,12.98
2022-09-01T03:43:22.424Z,12.94
2022-09-01T03:44:22.306Z,12.98
2022-09-01T03:45:22.242Z,12.96
2022-09-01T03:46:22.323Z,12.94
2022-09-01T03:47:22.119Z,12.92
2022-09-01T03:48:22.059Z,12.92
2022-09-01T03:49:21.995Z,12.84
2022-09-01T03:50:21.942Z,12.89
2022-09-01T03:51:21.867Z,12.88
2022-09-01T03:52:21.804Z,13.01
2022-09-01T03:53:21.736Z,12.94
2022-09-01T03:54:21.715Z,12.89
2022-09-01T03:55:21.611Z,12.91
2022-09-01T03:56:21.564Z,12.96
2022-09-01T03:57:21.509Z,12.95
2022-09-01T03:58:21.547Z,12.89
2022-09-01T03:59:21.365Z,12.92
2022-09-01T04:00:21.311Z,12.92
2022-09-01T04:01:21.489Z,12.98
2022-09-01T04:02:21.251Z,12.91
2022-09-01T04:03:21.120Z,12.94
2022-09-01T04:04:21.058Z,12.89
2022-09-01T04:05:21.029Z,12.88
2022-09-01T04:06:20.928Z,12.80
2022-09-01T04:07:20.858Z,12.77
2022-09-01T04:08:21.003Z,12.79
2022-09-01T04:09:20.755Z,12.91
2022-09-01T04:10:20.666Z,12.88
2022-09-01T04:11:20.614Z,12.88
2022-09-01T04:12:20.556Z,12.85
2022-09-01T04:13:20.486Z,12.77
2022-09-01T04:14:20.418Z,12.88
2022-09-01T04:15:20.355Z,12.88
2022-09-01T04:16:20.342Z,12.77
2022-09-01T04:17:20.240Z,12.81
2022-09-01T04:18:20.413Z,12.80
2022-09-01T04:19:20.592Z,12.74
2022-09-01T04:20:20.897Z,12.81
2022-09-01T04:21:19.976Z,12.85
2022-09-01T04:22:19.931Z,12.73
2022-09-01T04:23:19.862Z,12.67
2022-09-01T04:24:19.788Z,12.73
2022-09-01T04:25:19.746Z,12.77
2022-09-01T04:26:19.680Z,12.79
2022-09-01T04:27:19.604Z,12.74
2022-09-01T04:28:19.707Z,12.73
2022-09-01T04:29:19.515Z,12.69
2022-09-01T04:30:19.467Z,12.69
2022-09-01T04:31:19.486Z,12.69
2022-09-01T04:32:19.286Z,12.66
2022-09-01T04:33:19.277Z,12.63
2022-09-01T04:34:19.173Z,12.66
2022-09-01T04:35:19.101Z,12.58
2022-09-01T04:36:19.054Z,12.51
2022-09-01T04:37:18.982Z,12.56
2022-09-01T04:38:19.173Z,12.51
2022-09-01T04:39:18.841Z,12.54
2022-09-01T04:40:18.898Z,12.48
2022-09-01T04:41:18.744Z,12.55
2022-09-01T04:42:18.654Z,12.56
2022-09-01T04:43:18.588Z,12.46
2022-09-01T04:44:18.519Z,12.51
2022-09-01T04:45:20.663Z,12.43
2022-09-01T04:46:18.462Z,12.43
2022-09-01T04:47:18.342Z,12.43
2022-09-01T04:48:18.422Z,12.49
2022-09-01T04:49:18.215Z,12.51
2022-09-01T04:50:18.237Z,12.43
2022-09-01T04:51:18.079Z,12.48
2022-09-01T04:52:18.023Z,12.44
2022-09-01T04:53:17.955Z,12.34
2022-09-01T04:54:17.890Z,12.37
2022-09-01T04:55:18.245Z,12.34
2022-09-01T04:56:17.764Z,12.37
2022-09-01T04:57:17.700Z,12.38
2022-09-01T04:58:17.642Z,12.33
2022-09-01T04:59:17.587Z,12.38
2022-09-01T05:00:17.511Z,12.36
2022-09-01T05:01:17.602Z,12.36
2022-09-01T05:02:17.447Z,12.36
2022-09-01T05:03:17.325Z,12.37
2022-09-01T05:04:17.258Z,12.38
2022-09-01T05:05:17.203Z,12.43
2022-09-01T05:06:17.137Z,12.46
2022-09-01T05:07:17.071Z,12.44
2022-09-01T05:08:23.047Z,12.44
2022-09-01T05:09:16.952Z,12.43
2022-09-01T05:10:16.942Z,12.48
2022-09-01T05:11:16.823Z,12.52
2022-09-01T05:12:16.753Z,12.54
2022-09-01T05:13:16.706Z,12.63
2022-09-01T05:14:16.628Z,12.58
2022-09-01T05:15:16.577Z,12.56
2022-09-01T05:16:17.824Z,12.69
2022-09-01T05:17:16.446Z,12.88
2022-09-01T05:18:16.399Z,12.99
2022-09-01T05:19:16.323Z,12.95
2022-09-01T05:20:16.252Z,12.98
2022-09-01T05:21:16.204Z,12.98
2022-09-01T05:22:16.131Z,12.89
2022-09-01T05:23:16.078Z,12.88
2022-09-01T05:24:15.999Z,12.99
2022-09-01T05:25:15.939Z,13.09
2022-09-01T05:26:15.892Z,13.22
2022-09-01T05:27:15.812Z,13.32
2022-09-01T05:28:15.748Z,13.29
2022-09-01T05:29:15.695Z,13.43
2022-09-01T05:30:15.625Z,13.31
2022-09-01T05:31:15.660Z,13.32
2022-09-01T05:32:15.513Z,13.35
2022-09-01T05:33:18.745Z,13.38
2022-09-01T05:34:15.370Z,13.29
2022-09-01T05:35:15.313Z,13.38
2022-09-01T05:36:15.248Z,13.27
2022-09-01T05:37:15.185Z,13.44
2022-09-01T05:38:15.120Z,13.39
2022-09-01T05:39:15.062Z,13.47
2022-09-01T05:40:15.010Z,13.50
2022-09-01T05:41:15.013Z,13.47
2022-09-01T05:42:14.870Z,13.50
2022-09-01T05:43:14.806Z,13.62
2022-09-01T05:44:14.743Z,13.54
2022-09-01T05:45:14.681Z,13.66
2022-09-01T05:46:14.673Z,13.61
2022-09-01T05:47:20.427Z,13.55
2022-09-01T05:48:14.494Z,13.69
2022-09-01T05:49:14.442Z,13.68
2022-09-01T05:50:14.859Z,13.69
2022-09-01T05:51:33.448Z,13.76
2022-09-01T05:52:14.240Z,13.91
2022-09-01T05:53:14.180Z,13.86
2022-09-01T05:54:14.114Z,13.94
2022-09-01T05:55:14.069Z,14.02
2022-09-01T05:56:13.989Z,14.08
2022-09-01T05:57:33.264Z,14.01
2022-09-01T05:58:13.864Z,14.04
2022-09-01T05:59:29.257Z,14.04
2022-09-01T06:00:13.740Z,14.17
2022-09-01T06:01:13.680Z,14.23
2022-09-01T06:02:13.699Z,14.26
2022-09-01T06:03:13.831Z,14.29
2022-09-01T06:04:13.489Z,14.29
2022-09-01T06:05:13.431Z,14.44
2022-09-01T06:06:13.373Z,14.49
2022-09-01T06:07:16.051Z,14.53
2022-09-01T06:08:13.237Z,14.48
2022-09-01T06:09:13.176Z,14.56
2022-09-01T06:10:13.119Z,14.74
2022-09-01T06:11:13.049Z,14.79
2022-09-01T06:12:12.989Z,14.87
2022-09-01T06:13:12.979Z,14.98
2022-09-01T06:14:12.861Z,15.19
2022-09-01T06:15:12.803Z,15.74
2022-09-01T06:16:12.788Z,16.73
2022-09-01T06:17:12.677Z,17.17
2022-09-01T06:18:12.615Z,17.95
2022-09-01T06:19:12.565Z,18.36
2022-09-01T06:20:12.502Z,18.78
2022-09-01T06:21:12.431Z,19.07
2022-09-01T06:22:12.364Z,19.55
2022-09-01T06:23:12.391Z,20.19
2022-09-01T06:24:12.243Z,20.60
2022-09-01T06:25:12.192Z,20.69
2022-09-01T06:26:12.124Z,21.08
2022-09-01T06:27:12.064Z,20.93
2022-09-01T06:28:11.999Z,21.28
2022-09-01T06:29:11.956Z,21.37
2022-09-01T06:30:11.879Z,21.53
2022-09-01T06:31:11.953Z,21.42
2022-09-01T06:32:11.759Z,21.51
2022-09-01T06:33:11.712Z,21.89
2022-09-01T06:34:11.633Z,22.17
2022-09-01T06:35:11.591Z,22.17
2022-09-01T06:36:11.528Z,22.01
2022-09-01T06:37:11.455Z,22.27
2022-09-01T06:38:11.398Z,22.12
2022-09-01T06:39:11.339Z,22.56
2022-09-01T06:40:11.357Z,22.79
2022-09-01T06:41:11.221Z,22.46
2022-09-01T06:42:11.158Z,22.64
2022-09-01T06:43:11.100Z,22.57
2022-09-01T06:44:14.472Z,23.23
2022-09-01T06:45:10.979Z,23.68
2022-09-01T06:46:10.968Z,23.71
2022-09-01T06:47:10.860Z,24.05
2022-09-01T06:48:10.801Z,24.53
2022-09-01T06:49:10.760Z,24.52
2022-09-01T06:50:11.003Z,24.74
2022-09-01T06:51:20.570Z,24.61
2022-09-01T06:52:10.566Z,24.06
2022-09-01T06:54:14.135Z,24.06
2022-09-01T06:55:10.400Z,24.14
2022-09-01T06:56:10.347Z,24.14
2022-09-01T06:58:13.903Z,24.11
2022-09-01T06:59:10.156Z,24.23
2022-09-01T07:00:10.101Z,24.11
2022-09-01T07:01:10.119Z,23.96
2022-09-01T07:02:15.297Z,23.71
2022-09-01T07:03:09.928Z,23.96
2022-09-01T07:04:13.305Z,23.62
2022-09-01T07:05:59.817Z,23.72
2022-09-01T07:06:09.766Z,23.47
2022-09-01T07:08:09.638Z,23.25
2022-09-01T07:09:46.264Z,23.74
2022-09-01T07:10:25.115Z,24.36
2022-09-01T07:12:25.416Z,25.17
2022-09-01T07:13:09.350Z,24.98
2022-09-01T07:14:16.451Z,24.67
2022-09-01T07:17:24.565Z,24.18
2022-09-01T07:18:09.064Z,23.45
2022-09-01T07:19:09.006Z,23.75
2022-09-01T07:20:24.789Z,24.04
2022-09-01T07:21:35.688Z,23.90
2022-09-01T07:22:09.703Z,23.69
2022-09-01T07:23:08.778Z,24.15
2022-09-01T07:24:10.631Z,24.19
2022-09-01T07:26:08.603Z,23.78
2022-09-01T07:27:09.496Z,23.79
2022-09-01T07:28:08.494Z,23.77
2022-09-01T07:29:08.434Z,23.72
2022-09-01T07:30:08.378Z,24.09
2022-09-01T07:34:37.696Z,23.35
2022-09-01T07:35:08.097Z,23.12
2022-09-01T07:43:07.707Z,25.76
2022-09-01T07:44:07.581Z,25.66
2022-09-01T07:45:37.374Z,26.01
2022-09-01T07:47:52.507Z,26.00
2022-09-01T07:48:07.429Z,25.36
2022-09-01T07:50:37.536Z,24.86
2022-09-01T07:51:35.467Z,24.80
2022-09-01T07:52:07.237Z,24.33
2022-09-01T07:53:07.075Z,23.82
2022-09-01T07:54:07.027Z,24.24
2022-09-01T07:55:06.964Z,24.92
2022-09-01T07:56:06.904Z,25.26
2022-09-01T07:57:06.850Z,24.90
2022-09-01T07:58:06.813Z,24.16
2022-09-01T07:59:06.751Z,24.16
2022-09-01T08:00:06.678Z,24.93
2022-09-01T08:01:06.628Z,25.54
2022-09-01T08:02:06.730Z,25.79
2022-09-01T08:03:06.602Z,26.12
2022-09-01T08:04:06.459Z,26.59
2022-09-01T08:05:06.408Z,27.23
2022-09-01T08:06:06.349Z,27.71
2022-09-01T08:07:06.291Z,27.83
2022-09-01T08:08:18.675Z,27.69
2022-09-01T08:09:06.179Z,27.72
2022-09-01T08:10:06.126Z,27.62
2022-09-01T08:11:06.107Z,27.13
2022-09-01T08:12:06.013Z,27.12
2022-09-01T08:13:05.956Z,26.91
2022-09-01T08:14:05.902Z,27.23
2022-09-01T08:15:14.092Z,27.18
2022-09-01T08:16:07.216Z,26.91
2022-09-01T08:18:05.734Z,26.24
2022-09-01T08:19:16.579Z,26.35
2022-09-01T08:20:05.569Z,26.83
2022-09-01T08:21:05.513Z,26.49
2022-09-01T08:22:05.464Z,26.93
2022-09-01T08:23:05.411Z,27.52
2022-09-01T08:24:05.363Z,27.83
2022-09-01T08:25:05.294Z,28.30
2022-09-01T08:26:05.243Z,28.48
2022-09-01T08:27:05.201Z,28.67
2022-09-01T08:28:05.138Z,28.72
2022-09-01T08:29:05.079Z,28.67
2022-09-01T08:30:05.023Z,28.98
2022-09-01T08:31:10.482Z,29.07
2022-09-01T08:32:04.919Z,28.23
2022-09-01T08:33:11.653Z,27.21
2022-09-01T08:34:04.806Z,27.25
2022-09-01T08:35:04.752Z,27.52
2022-09-01T08:36:04.707Z,27.80
2022-09-01T08:37:04.651Z,27.01
2022-09-01T08:38:04.591Z,27.25
2022-09-01T08:39:04.542Z,27.15
2022-09-01T08:40:04.605Z,27.28
2022-09-01T08:41:04.462Z,27.49
2022-09-01T08:42:04.391Z,27.39
2022-09-01T08:43:04.319Z,27.12
2022-09-01T08:44:04.270Z,27.42
2022-09-01T08:45:04.226Z,27.88
2022-09-01T08:46:04.233Z,28.51
2022-09-01T08:47:04.112Z,28.62
2022-09-01T08:48:37.191Z,28.48
2022-09-01T08:49:25.119Z,28.62
2022-09-01T08:50:06.210Z,27.58
2022-09-01T08:51:07.137Z,27.12
2022-09-01T08:52:03.862Z,26.86
2022-09-01T08:53:11.028Z,27.02
2022-09-01T08:54:03.741Z,27.02
2022-09-01T08:55:03.725Z,27.08
2022-09-01T08:56:03.627Z,27.05
2022-09-01T08:57:03.575Z,26.81
2022-09-01T08:58:03.528Z,26.21
2022-09-01T08:59:03.476Z,26.32
2022-09-01T09:00:03.424Z,26.36
2022-09-01T09:01:03.411Z,26.27
2022-09-01T09:02:03.809Z,26.50
2022-09-01T09:03:03.302Z,26.98
2022-09-01T09:04:03.235Z,26.81
2022-09-01T09:05:15.563Z,26.78
2022-09-01T09:06:03.102Z,27.15
2022-09-01T09:07:03.040Z,26.94
2022-09-01T09:08:09.806Z,26.83
2022-09-01T09:09:02.935Z,26.96
2022-09-01T09:10:02.898Z,26.84
2022-09-01T09:11:02.829Z,26.61
2022-09-01T09:12:03.613Z,26.83
2022-09-01T09:13:02.777Z,26.91
2022-09-01T09:14:02.669Z,26.96
2022-09-01T09:15:02.612Z,26.41
2022-09-01T09:16:09.914Z,26.49
2022-09-01T09:17:02.513Z,26.56
2022-09-01T09:18:02.456Z,26.71
2022-09-01T09:19:02.406Z,25.75
2022-09-01T09:20:02.349Z,26.08
2022-09-01T09:21:02.296Z,26.54
2022-09-01T09:22:02.302Z,25.98
2022-09-01T09:23:03.941Z,26.11
2022-09-01T09:24:02.136Z,26.64
2022-09-01T09:25:02.094Z,26.87
2022-09-01T09:26:02.314Z,26.21
2022-09-01T09:27:01.983Z,26.72
2022-09-01T09:28:01.937Z,27.12
2022-09-01T09:29:01.883Z,26.56
2022-09-01T09:30:07.387Z,26.49
2022-09-01T09:31:01.780Z,26.20
2022-09-01T09:32:01.950Z,26.31
2022-09-01T09:34:01.676Z,26.28
2022-09-01T09:35:01.549Z,26.83
2022-09-01T09:36:01.495Z,26.84
2022-09-01T09:37:01.439Z,26.32
2022-09-01T09:38:01.387Z,25.79
2022-09-01T09:39:01.442Z,25.44
2022-09-01T09:40:01.282Z,26.01
2022-09-01T09:41:19.641Z,25.81
2022-09-01T09:42:01.174Z,25.29
2022-09-01T09:43:01.693Z,25.31
2022-09-01T09:44:01.064Z,25.61
2022-09-01T09:45:01.009Z,25.97
2022-09-01T09:46:00.988Z,26.86
2022-09-01T09:47:00.932Z,27.50
2022-09-01T09:48:00.850Z,26.84
2022-09-01T09:49:00.800Z,26.75
2022-09-01T09:50:00.742Z,26.29
2022-09-01T09:51:00.704Z,26.84
2022-09-01T09:52:00.636Z,27.40
2022-09-01T09:53:00.933Z,27.71
2022-09-01T09:54:00.528Z,27.78
2022-09-01T09:55:00.475Z,27.83
2022-09-01T09:56:00.421Z,27.55
2022-09-01T09:57:00.362Z,27.58
2022-09-01T09:58:00.329Z,27.95
2022-09-01T09:59:00.257Z,27.01
2022-09-01T10:00:01.340Z,27.08
2022-09-01T10:01:00.175Z,26.53
2022-09-01T10:02:00.113Z,26.54
2022-09-01T10:03:00.040Z,26.66
2022-09-01T10:04:00.030Z,26.84
2022-09-01T10:04:59.950Z,27.21
2022-09-01T10:05:59.886Z,26.91
2022-09-01T10:06:59.845Z,26.66
2022-09-01T10:07:59.808Z,27.16
2022-09-01T10:08:59.726Z,26.54
2022-09-01T10:09:59.694Z,25.76
2022-09-01T10:10:59.627Z,26.27
2022-09-01T10:11:59.613Z,26.90
2022-09-01T10:12:59.507Z,26.35
2022-09-01T10:13:59.479Z,25.91
2022-09-01T10:14:59.430Z,26.19
2022-09-01T10:15:59.358Z,27.05
2022-09-01T10:16:59.533Z,27.03
2022-09-01T10:18:59.184Z,26.73
2022-09-01T10:19:59.133Z,26.64
2022-09-01T10:20:59.075Z,26.94
2022-09-01T10:21:59.044Z,26.96
2022-09-01T10:22:58.967Z,26.00
2022-09-01T10:24:17.007Z,25.24
2022-09-01T10:24:58.878Z,24.37
2022-09-01T10:25:58.809Z,23.87
2022-09-01T10:26:58.755Z,23.34
2022-09-01T10:27:59.167Z,23.34
2022-09-01T10:28:58.651Z,23.45
2022-09-01T10:30:18.407Z,23.84
2022-09-01T10:30:58.583Z,24.37
2022-09-01T10:32:28.154Z,24.90
2022-09-01T10:33:03.384Z,24.93
2022-09-01T10:33:58.679Z,24.55
2022-09-01T10:34:59.707Z,24.51
2022-09-01T10:35:58.263Z,24.19
2022-09-01T10:36:59.085Z,24.49
2022-09-01T10:37:59.451Z,25.27
2022-09-01T10:39:04.635Z,26.13
2022-09-01T10:39:58.074Z,26.59
2022-09-01T10:40:58.033Z,26.88
2022-09-01T10:41:59.912Z,26.76
2022-09-01T10:42:57.879Z,26.75
2022-09-01T10:43:58.883Z,27.18
2022-09-01T10:44:57.840Z,26.90
2022-09-01T10:46:05.352Z,26.47
2022-09-01T10:47:00.214Z,26.31
2022-09-01T10:47:57.598Z,25.86
2022-09-01T10:49:03.195Z,25.27
2022-09-01T10:49:57.486Z,24.90
2022-09-01T10:50:57.437Z,24.52
2022-09-01T10:52:02.682Z,24.36
2022-09-01T10:52:57.321Z,24.02
2022-09-01T10:54:01.819Z,23.82
2022-09-01T10:54:57.207Z,24.11
2022-09-01T10:55:59.046Z,23.60
2022-09-01T10:56:57.599Z,23.29
2022-09-01T10:58:07.805Z,24.12
2022-09-01T10:59:57.370Z,25.36
2022-09-01T11:01:14.401Z,25.48
2022-09-01T11:02:23.142Z,25.31
2022-09-01T11:02:56.876Z,25.94
2022-09-01T11:03:57.227Z,26.32
2022-09-01T11:04:56.730Z,26.11
2022-09-01T11:06:11.125Z,25.83
2022-09-01T11:07:12.303Z,25.34
2022-09-01T11:08:00.925Z,25.26
2022-09-01T11:08:56.430Z,25.07
2022-09-01T11:09:57.532Z,24.83
2022-09-01T11:10:56.338Z,24.86
2022-09-01T11:11:56.269Z,24.63
2022-09-01T11:12:56.214Z,24.24
2022-09-01T11:13:56.157Z,24.16
2022-09-01T11:14:56.109Z,24.34
2022-09-01T11:16:00.322Z,24.97
2022-09-01T11:16:56.028Z,25.48
2022-09-01T11:17:55.934Z,25.45
2022-09-01T11:18:55.886Z,25.93
2022-09-01T11:19:55.820Z,26.01
2022-09-01T11:20:57.771Z,26.59
2022-09-01T11:21:55.712Z,26.59
2022-09-01T11:22:55.655Z,26.49
2022-09-01T11:23:55.615Z,26.29
2022-09-01T11:24:55.998Z,26.20
2022-09-01T11:26:55.427Z,26.39
2022-09-01T11:27:55.372Z,26.69
2022-09-01T11:28:55.339Z,27.53
2022-09-01T11:29:55.268Z,27.12
2022-09-01T11:30:55.350Z,26.88
2022-09-01T11:31:55.294Z,26.09
2022-09-01T11:32:55.096Z,25.48
2022-09-01T11:33:55.060Z,25.16
2022-09-01T11:34:54.997Z,25.39
2022-09-01T11:35:54.935Z,25.66
2022-09-01T11:36:54.880Z,25.81
2022-09-01T11:37:54.829Z,25.29
2022-09-01T11:38:54.769Z,25.08
2022-09-01T11:39:54.723Z,24.64
2022-09-01T11:40:54.709Z,24.36
2022-09-01T11:41:57.541Z,24.09
2022-09-01T11:42:55.342Z,24.16
2022-09-01T11:43:54.499Z,23.92
2022-09-01T11:44:54.437Z,23.63
2022-09-01T11:45:54.419Z,23.50
2022-09-01T11:46:54.320Z,23.54
2022-09-01T11:47:54.270Z,23.37
2022-09-01T11:48:54.203Z,23.34
2022-09-01T11:49:54.153Z,23.15
2022-09-01T11:50:54.091Z,23.07
2022-09-01T11:51:54.074Z,23.06
2022-09-01T11:52:54.010Z,22.99
2022-09-01T11:53:53.926Z,22.99
2022-09-01T11:54:53.876Z,23.07
2022-09-01T11:55:53.804Z,23.01
2022-09-01T11:56:53.756Z,23.04
2022-09-01T11:57:53.707Z,23.06
2022-09-01T11:58:53.644Z,23.09
2022-09-01T11:59:53.579Z,23.07
2022-09-01T12:00:53.560Z,23.00
2022-09-01T12:01:53.596Z,22.99
2022-09-01T12:02:53.592Z,22.94
2022-09-01T12:03:53.410Z,22.88
2022-09-01T12:04:53.295Z,22.93
2022-09-01T12:05:53.244Z,22.84
2022-09-01T12:06:53.172Z,22.76
2022-09-01T12:07:53.118Z,22.60
2022-09-01T12:08:53.062Z,22.63
2022-09-01T12:09:53.042Z,22.67
2022-09-01T12:10:52.945Z,22.94
2022-09-01T12:11:52.887Z,23.11
2022-09-01T12:12:52.836Z,23.07
2022-09-01T12:13:52.801Z,23.22
2022-09-01T12:15:05.246Z,23.23
2022-09-01T12:16:16.596Z,23.34
2022-09-01T12:16:52.645Z,23.35
2022-09-01T12:17:52.546Z,23.25
2022-09-01T12:18:52.500Z,22.99
2022-09-01T12:19:52.432Z,22.97
2022-09-01T12:20:52.386Z,22.97
2022-09-01T12:21:54.149Z,22.96
2022-09-01T12:22:52.251Z,22.85
2022-09-01T12:23:52.202Z,22.89
2022-09-01T12:24:52.139Z,22.78
2022-09-01T12:25:52.080Z,22.67
2022-09-01T12:26:52.021Z,22.67
2022-09-01T12:27:51.972Z,22.69
2022-09-01T12:28:51.904Z,22.75
2022-09-01T12:29:51.843Z,22.64
2022-09-01T12:30:51.789Z,22.66
2022-09-01T12:31:51.812Z,22.84
2022-09-01T12:32:51.968Z,22.86
2022-09-01T12:33:51.612Z,22.99
2022-09-01T12:34:51.582Z,23.07
2022-09-01T12:35:53.217Z,23.16
2022-09-01T12:36:51.442Z,23.22
2022-09-01T12:37:51.414Z,23.23
2022-09-01T12:38:51.322Z,23.34
2022-09-01T12:39:51.267Z,23.19
2022-09-01T12:40:51.255Z,23.11
2022-09-01T12:41:51.154Z,23.01
2022-09-01T12:42:51.129Z,23.09
2022-09-01T12:43:53.945Z,22.96
2022-09-01T12:44:51.011Z,22.94
2022-09-01T12:45:50.935Z,22.88
2022-09-01T12:46:50.867Z,23.07
2022-09-01T12:47:50.959Z,23.06
2022-09-01T12:48:50.745Z,23.01
2022-09-01T12:49:52.209Z,22.85
2022-09-01T12:50:50.625Z,22.66
2022-09-01T12:51:50.563Z,22.51
2022-09-01T12:52:52.331Z,22.35
2022-09-01T12:53:50.452Z,22.42
2022-09-01T12:54:50.417Z,22.42
2022-09-01T12:55:50.357Z,22.59
2022-09-01T12:56:50.283Z,22.70
2022-09-01T12:57:50.221Z,22.76
2022-09-01T12:58:50.165Z,22.91
2022-09-01T12:59:50.098Z,22.96
2022-09-01T13:00:50.099Z,22.86
2022-09-01T13:01:50.188Z,22.82
2022-09-01T13:02:50.015Z,22.81
2022-09-01T13:03:49.870Z,23.00
2022-09-01T13:04:49.852Z,23.22
2022-09-01T13:05:50.929Z,23.34
2022-09-01T13:06:49.795Z,23.50
2022-09-01T13:07:49.637Z,23.62
2022-09-01T13:08:49.579Z,23.71
2022-09-01T13:09:49.535Z,23.92
2022-09-01T13:10:49.473Z,24.19
2022-09-01T13:12:06.748Z,24.26
2022-09-01T13:12:49.352Z,24.36
2022-09-01T13:13:49.289Z,24.23
2022-09-01T13:14:49.243Z,24.14
2022-09-01T13:15:49.193Z,23.75